sensor_id;sensor_type;location;lat;lon;timestamp;P1;durP1;ratioP1;P2;durP2;ratioP2
14235;SDS011;7202;50.718;7.072;2024-01-30T00:01:55;11.98;;;7.97;;
14235;SDS011;7202;50.718;7.072;2024-01-30T00:04:25;12.45;;;7.80;;
14235;SDS011;7202;50.718;7.072;2024-01-30T00:06:54;11.77;;;7.72;;
14235;SDS011;7202;50.718;7.072;2024-01-30T00:09:22;10.80;;;7.95;;
14235;SDS011;7202;50.718;7.072;2024-01-30T00:11:53;10.77;;;7.85;;
14235;SDS011;7202;50.718;7.072;2024-01-30T00:14:22;12.65;;;7.97;;
14235;SDS011;7202;50.718;7.072;2024-01-30T00:16:50;12.18;;;7.75;;
14235;SDS011;7202;50.718;7.072;2024-01-30T00:19:19;9.75;;;7.38;;
14235;SDS011;7202;50.718;7.072;2024-01-30T00:21:49;11.57;;;7.40;;
14235;SDS011;7202;50.718;7.072;2024-01-30T00:24:18;11.63;;;7.97;;
14235;SDS011;7202;50.718;7.072;2024-01-30T00:26:47;10.07;;;7.03;;
14235;SDS011;7202;50.718;7.072;2024-01-30T00:29:15;11.30;;;7.85;;
14235;SDS011;7202;50.718;7.072;2024-01-30T00:31:46;11.95;;;7.45;;
14235;SDS011;7202;50.718;7.072;2024-01-30T00:34:15;12.20;;;7.57;;
14235;SDS011;7202;50.718;7.072;2024-01-30T00:36:43;10.30;;;7.28;;
14235;SDS011;7202;50.718;7.072;2024-01-30T00:39:13;10.93;;;8.00;;
14235;SDS011;7202;50.718;7.072;2024-01-30T00:41:42;9.93;;;7.22;;
14235;SDS011;7202;50.718;7.072;2024-01-30T00:44:11;11.45;;;7.95;;
14235;SDS011;7202;50.718;7.072;2024-01-30T00:46:39;14.02;;;7.20;;
14235;SDS011;7202;50.718;7.072;2024-01-30T00:49:08;10.23;;;7.22;;
14235;SDS011;7202;50.718;7.072;2024-01-30T00:51:37;12.25;;;7.53;;
14235;SDS011;7202;50.718;7.072;2024-01-30T00:54:05;10.75;;;7.28;;
14235;SDS011;7202;50.718;7.072;2024-01-30T00:56:36;10.95;;;7.45;;
14235;SDS011;7202;50.718;7.072;2024-01-30T00:59:04;9.98;;;7.47;;
14235;SDS011;7202;50.718;7.072;2024-01-30T01:01:33;11.68;;;8.15;;
14235;SDS011;7202;50.718;7.072;2024-01-30T01:04:01;10.50;;;7.60;;
14235;SDS011;7202;50.718;7.072;2024-01-30T01:06:30;12.90;;;7.95;;
14235;SDS011;7202;50.718;7.072;2024-01-30T01:08:59;10.48;;;7.43;;
14235;SDS011;7202;50.718;7.072;2024-01-30T01:11:30;13.38;;;7.88;;
14235;SDS011;7202;50.718;7.072;2024-01-30T01:14:00;13.30;;;8.00;;
14235;SDS011;7202;50.718;7.072;2024-01-30T01:16:29;10.85;;;7.85;;
14235;SDS011;7202;50.718;7.072;2024-01-30T01:18:57;13.57;;;7.70;;
14235;SDS011;7202;50.718;7.072;2024-01-30T01:21:27;15.73;;;8.10;;
14235;SDS011;7202;50.718;7.072;2024-01-30T01:23:55;12.88;;;8.02;;
14235;SDS011;7202;50.718;7.072;2024-01-30T01:26:24;10.52;;;7.35;;
14235;SDS011;7202;50.718;7.072;2024-01-30T01:28:53;10.57;;;6.88;;
14235;SDS011;7202;50.718;7.072;2024-01-30T01:31:23;12.55;;;7.95;;
14235;SDS011;7202;50.718;7.072;2024-01-30T01:33:52;13.80;;;7.57;;
14235;SDS011;7202;50.718;7.072;2024-01-30T01:36:20;13.50;;;7.53;;
14235;SDS011;7202;50.718;7.072;2024-01-30T01:38:49;10.98;;;7.65;;
14235;SDS011;7202;50.718;7.072;2024-01-30T01:41:18;9.93;;;7.35;;
14235;SDS011;7202;50.718;7.072;2024-01-30T01:43:46;12.75;;;7.90;;
14235;SDS011;7202;50.718;7.072;2024-01-30T01:46:15;12.55;;;8.20;;
14235;SDS011;7202;50.718;7.072;2024-01-30T01:48:46;11.45;;;7.47;;
14235;SDS011;7202;50.718;7.072;2024-01-30T01:51:15;12.93;;;8.30;;
14235;SDS011;7202;50.718;7.072;2024-01-30T01:53:44;11.45;;;7.28;;
14235;SDS011;7202;50.718;7.072;2024-01-30T01:56:13;14.52;;;8.05;;
14235;SDS011;7202;50.718;7.072;2024-01-30T01:58:42;13.20;;;8.00;;
14235;SDS011;7202;50.718;7.072;2024-01-30T02:01:14;12.60;;;7.57;;
14235;SDS011;7202;50.718;7.072;2024-01-30T02:03:44;10.13;;;7.95;;
14235;SDS011;7202;50.718;7.072;2024-01-30T02:06:14;10.10;;;7.53;;
14235;SDS011;7202;50.718;7.072;2024-01-30T02:08:43;12.57;;;8.07;;
14235;SDS011;7202;50.718;7.072;2024-01-30T02:11:12;12.63;;;8.05;;
14235;SDS011;7202;50.718;7.072;2024-01-30T02:13:41;13.63;;;7.70;;
14235;SDS011;7202;50.718;7.072;2024-01-30T02:16:09;15.38;;;8.40;;
14235;SDS011;7202;50.718;7.072;2024-01-30T02:18:38;10.23;;;7.78;;
14235;SDS011;7202;50.718;7.072;2024-01-30T02:21:11;11.30;;;8.02;;
14235;SDS011;7202;50.718;7.072;2024-01-30T02:23:40;12.27;;;8.30;;
14235;SDS011;7202;50.718;7.072;2024-01-30T02:26:10;11.60;;;8.15;;
14235;SDS011;7202;50.718;7.072;2024-01-30T02:28:39;12.35;;;8.07;;
14235;SDS011;7202;50.718;7.072;2024-01-30T02:31:08;11.85;;;8.15;;
14235;SDS011;7202;50.718;7.072;2024-01-30T02:33:36;13.13;;;8.82;;
14235;SDS011;7202;50.718;7.072;2024-01-30T02:36:05;13.48;;;7.97;;
14235;SDS011;7202;50.718;7.072;2024-01-30T02:38:35;10.68;;;7.80;;
14235;SDS011;7202;50.718;7.072;2024-01-30T02:41:03;12.20;;;7.72;;
14235;SDS011;7202;50.718;7.072;2024-01-30T02:43:32;13.02;;;7.95;;
14235;SDS011;7202;50.718;7.072;2024-01-30T02:46:00;11.88;;;7.78;;
14235;SDS011;7202;50.718;7.072;2024-01-30T02:48:29;14.90;;;8.68;;
14235;SDS011;7202;50.718;7.072;2024-01-30T02:50:58;11.65;;;8.13;;
14235;SDS011;7202;50.718;7.072;2024-01-30T02:53:26;11.52;;;8.45;;
14235;SDS011;7202;50.718;7.072;2024-01-30T02:55:56;15.38;;;8.30;;
14235;SDS011;7202;50.718;7.072;2024-01-30T02:58:25;12.77;;;8.05;;
14235;SDS011;7202;50.718;7.072;2024-01-30T03:00:54;11.73;;;7.28;;
14235;SDS011;7202;50.718;7.072;2024-01-30T03:03:22;13.75;;;8.40;;
14235;SDS011;7202;50.718;7.072;2024-01-30T03:05:51;16.88;;;8.05;;
14235;SDS011;7202;50.718;7.072;2024-01-30T03:08:19;13.07;;;7.88;;
14235;SDS011;7202;50.718;7.072;2024-01-30T03:10:48;10.85;;;7.32;;
14235;SDS011;7202;50.718;7.072;2024-01-30T03:13:18;10.98;;;7.63;;
14235;SDS011;7202;50.718;7.072;2024-01-30T03:15:47;10.50;;;7.78;;
14235;SDS011;7202;50.718;7.072;2024-01-30T03:18:15;10.40;;;8.05;;
14235;SDS011;7202;50.718;7.072;2024-01-30T03:20:44;12.30;;;7.50;;
14235;SDS011;7202;50.718;7.072;2024-01-30T03:23:13;9.75;;;7.47;;
14235;SDS011;7202;50.718;7.072;2024-01-30T03:25:41;11.52;;;7.97;;
14235;SDS011;7202;50.718;7.072;2024-01-30T03:28:10;9.13;;;7.82;;
14235;SDS011;7202;50.718;7.072;2024-01-30T03:30:40;11.55;;;7.85;;
14235;SDS011;7202;50.718;7.072;2024-01-30T03:33:09;10.02;;;7.45;;
14235;SDS011;7202;50.718;7.072;2024-01-30T03:35:37;13.07;;;6.93;;
14235;SDS011;7202;50.718;7.072;2024-01-30T03:38:06;12.60;;;7.80;;
14235;SDS011;7202;50.718;7.072;2024-01-30T03:40:34;11.48;;;8.23;;
14235;SDS011;7202;50.718;7.072;2024-01-30T03:43:03;12.70;;;8.38;;
14235;SDS011;7202;50.718;7.072;2024-01-30T03:45:32;12.93;;;7.93;;
14235;SDS011;7202;50.718;7.072;2024-01-30T03:48:02;11.57;;;8.43;;
14235;SDS011;7202;50.718;7.072;2024-01-30T03:50:30;13.32;;;8.43;;
14235;SDS011;7202;50.718;7.072;2024-01-30T03:52:59;10.82;;;7.57;;
14235;SDS011;7202;50.718;7.072;2024-01-30T03:55:27;13.05;;;7.95;;
14235;SDS011;7202;50.718;7.072;2024-01-30T03:57:56;11.38;;;7.95;;
14235;SDS011;7202;50.718;7.072;2024-01-30T04:00:25;16.08;;;8.52;;
14235;SDS011;7202;50.718;7.072;2024-01-30T04:02:53;12.52;;;7.63;;
14235;SDS011;7202;50.718;7.072;2024-01-30T04:05:23;12.35;;;7.70;;
14235;SDS011;7202;50.718;7.072;2024-01-30T04:07:52;11.38;;;7.57;;
14235;SDS011;7202;50.718;7.072;2024-01-30T04:10:20;11.50;;;7.47;;
14235;SDS011;7202;50.718;7.072;2024-01-30T04:12:50;15.55;;;7.50;;
14235;SDS011;7202;50.718;7.072;2024-01-30T04:15:21;9.80;;;6.97;;
14235;SDS011;7202;50.718;7.072;2024-01-30T04:17:49;9.43;;;7.43;;
14235;SDS011;7202;50.718;7.072;2024-01-30T04:20:18;12.63;;;7.63;;
14235;SDS011;7202;50.718;7.072;2024-01-30T04:22:48;9.70;;;6.90;;
14235;SDS011;7202;50.718;7.072;2024-01-30T04:25:16;9.30;;;7.10;;
14235;SDS011;7202;50.718;7.072;2024-01-30T04:27:45;9.20;;;6.82;;
14235;SDS011;7202;50.718;7.072;2024-01-30T04:30:13;11.10;;;7.80;;
14235;SDS011;7202;50.718;7.072;2024-01-30T04:32:43;12.10;;;7.95;;
14235;SDS011;7202;50.718;7.072;2024-01-30T04:35:12;10.80;;;7.43;;
14235;SDS011;7202;50.718;7.072;2024-01-30T04:37:41;10.50;;;7.20;;
14235;SDS011;7202;50.718;7.072;2024-01-30T04:40:11;11.98;;;7.40;;
14235;SDS011;7202;50.718;7.072;2024-01-30T04:42:40;10.68;;;7.80;;
14235;SDS011;7202;50.718;7.072;2024-01-30T04:45:09;12.48;;;7.90;;
14235;SDS011;7202;50.718;7.072;2024-01-30T04:47:37;13.32;;;8.25;;
14235;SDS011;7202;50.718;7.072;2024-01-30T04:50:07;11.25;;;7.85;;
14235;SDS011;7202;50.718;7.072;2024-01-30T04:52:36;12.40;;;7.60;;
14235;SDS011;7202;50.718;7.072;2024-01-30T04:55:05;11.77;;;7.13;;
14235;SDS011;7202;50.718;7.072;2024-01-30T04:57:36;10.55;;;7.82;;
14235;SDS011;7202;50.718;7.072;2024-01-30T05:00:05;12.15;;;8.25;;
14235;SDS011;7202;50.718;7.072;2024-01-30T05:02:34;10.00;;;6.70;;
14235;SDS011;7202;50.718;7.072;2024-01-30T05:05:03;12.43;;;7.50;;
14235;SDS011;7202;50.718;7.072;2024-01-30T05:07:32;11.57;;;7.45;;
14235;SDS011;7202;50.718;7.072;2024-01-30T05:10:01;10.80;;;7.45;;
14235;SDS011;7202;50.718;7.072;2024-01-30T05:12:33;9.70;;;7.20;;
14235;SDS011;7202;50.718;7.072;2024-01-30T05:15:03;12.02;;;6.95;;
14235;SDS011;7202;50.718;7.072;2024-01-30T05:17:32;12.25;;;7.90;;
14235;SDS011;7202;50.718;7.072;2024-01-30T05:20:01;15.15;;;8.32;;
14235;SDS011;7202;50.718;7.072;2024-01-30T05:22:31;11.90;;;7.32;;
14235;SDS011;7202;50.718;7.072;2024-01-30T05:25:00;10.90;;;7.15;;
14235;SDS011;7202;50.718;7.072;2024-01-30T05:27:28;12.88;;;8.52;;
14235;SDS011;7202;50.718;7.072;2024-01-30T05:29:57;11.18;;;7.97;;
14235;SDS011;7202;50.718;7.072;2024-01-30T05:32:27;11.48;;;7.93;;
14235;SDS011;7202;50.718;7.072;2024-01-30T05:34:55;14.10;;;8.15;;
14235;SDS011;7202;50.718;7.072;2024-01-30T05:37:24;9.18;;;7.07;;
14235;SDS011;7202;50.718;7.072;2024-01-30T05:39:53;10.75;;;6.95;;
14235;SDS011;7202;50.718;7.072;2024-01-30T05:42:21;13.35;;;7.90;;
14235;SDS011;7202;50.718;7.072;2024-01-30T05:44:50;10.90;;;7.75;;
14235;SDS011;7202;50.718;7.072;2024-01-30T05:47:18;12.80;;;7.57;;
14235;SDS011;7202;50.718;7.072;2024-01-30T05:49:48;14.40;;;8.05;;
14235;SDS011;7202;50.718;7.072;2024-01-30T05:52:17;12.73;;;8.02;;
14235;SDS011;7202;50.718;7.072;2024-01-30T05:54:46;10.18;;;7.32;;
14235;SDS011;7202;50.718;7.072;2024-01-30T05:57:15;11.13;;;8.15;;
14235;SDS011;7202;50.718;7.072;2024-01-30T05:59:44;15.45;;;8.88;;
14235;SDS011;7202;50.718;7.072;2024-01-30T06:02:14;10.88;;;8.00;;
14235;SDS011;7202;50.718;7.072;2024-01-30T06:04:43;12.27;;;8.13;;
14235;SDS011;7202;50.718;7.072;2024-01-30T06:07:13;15.48;;;7.95;;
14235;SDS011;7202;50.718;7.072;2024-01-30T06:09:41;14.77;;;8.18;;
14235;SDS011;7202;50.718;7.072;2024-01-30T06:12:10;11.25;;;7.60;;
14235;SDS011;7202;50.718;7.072;2024-01-30T06:14:39;13.40;;;7.95;;
14235;SDS011;7202;50.718;7.072;2024-01-30T06:17:13;10.85;;;7.57;;
14235;SDS011;7202;50.718;7.072;2024-01-30T06:19:41;10.75;;;7.60;;
14235;SDS011;7202;50.718;7.072;2024-01-30T06:22:10;16.40;;;7.15;;
14235;SDS011;7202;50.718;7.072;2024-01-30T06:24:40;13.15;;;7.50;;
14235;SDS011;7202;50.718;7.072;2024-01-30T06:27:08;13.63;;;7.97;;
14235;SDS011;7202;50.718;7.072;2024-01-30T06:29:37;12.73;;;8.60;;
14235;SDS011;7202;50.718;7.072;2024-01-30T06:32:05;13.45;;;7.85;;
14235;SDS011;7202;50.718;7.072;2024-01-30T06:34:34;11.65;;;7.95;;
14235;SDS011;7202;50.718;7.072;2024-01-30T06:37:03;10.32;;;7.05;;
14235;SDS011;7202;50.718;7.072;2024-01-30T06:39:32;10.60;;;7.00;;
14235;SDS011;7202;50.718;7.072;2024-01-30T06:42:02;9.48;;;7.72;;
14235;SDS011;7202;50.718;7.072;2024-01-30T06:44:31;8.73;;;6.90;;
14235;SDS011;7202;50.718;7.072;2024-01-30T06:47:00;12.55;;;7.28;;
14235;SDS011;7202;50.718;7.072;2024-01-30T06:49:28;12.20;;;7.85;;
14235;SDS011;7202;50.718;7.072;2024-01-30T06:51:57;13.77;;;7.32;;
14235;SDS011;7202;50.718;7.072;2024-01-30T06:54:25;10.50;;;7.97;;
14235;SDS011;7202;50.718;7.072;2024-01-30T06:56:54;10.30;;;7.82;;
14235;SDS011;7202;50.718;7.072;2024-01-30T06:59:24;10.30;;;7.68;;
14235;SDS011;7202;50.718;7.072;2024-01-30T07:01:52;11.48;;;7.90;;
14235;SDS011;7202;50.718;7.072;2024-01-30T07:04:21;11.05;;;7.40;;
14235;SDS011;7202;50.718;7.072;2024-01-30T07:06:50;11.07;;;7.40;;
14235;SDS011;7202;50.718;7.072;2024-01-30T07:09:20;11.48;;;7.65;;
14235;SDS011;7202;50.718;7.072;2024-01-30T07:11:50;12.98;;;7.95;;
14235;SDS011;7202;50.718;7.072;2024-01-30T07:14:18;10.52;;;7.72;;
14235;SDS011;7202;50.718;7.072;2024-01-30T07:16:48;11.05;;;7.75;;
14235;SDS011;7202;50.718;7.072;2024-01-30T07:19:17;13.35;;;8.30;;
14235;SDS011;7202;50.718;7.072;2024-01-30T07:21:46;11.60;;;7.35;;
14235;SDS011;7202;50.718;7.072;2024-01-30T07:24:14;15.02;;;8.10;;
14235;SDS011;7202;50.718;7.072;2024-01-30T07:26:43;12.65;;;7.20;;
14235;SDS011;7202;50.718;7.072;2024-01-30T07:29:11;13.88;;;8.32;;
14235;SDS011;7202;50.718;7.072;2024-01-30T07:31:40;14.05;;;8.02;;
14235;SDS011;7202;50.718;7.072;2024-01-30T07:34:10;11.05;;;8.07;;
14235;SDS011;7202;50.718;7.072;2024-01-30T07:36:39;13.60;;;7.65;;
14235;SDS011;7202;50.718;7.072;2024-01-30T07:39:08;10.15;;;7.05;;
14235;SDS011;7202;50.718;7.072;2024-01-30T07:41:37;12.95;;;8.43;;
14235;SDS011;7202;50.718;7.072;2024-01-30T07:44:05;10.57;;;7.93;;
14235;SDS011;7202;50.718;7.072;2024-01-30T07:46:34;10.35;;;7.20;;
14235;SDS011;7202;50.718;7.072;2024-01-30T07:49:03;15.20;;;8.13;;
14235;SDS011;7202;50.718;7.072;2024-01-30T07:51:33;10.55;;;7.95;;
14235;SDS011;7202;50.718;7.072;2024-01-30T07:54:02;12.00;;;7.90;;
14235;SDS011;7202;50.718;7.072;2024-01-30T07:56:29;13.05;;;9.43;;
14235;SDS011;7202;50.718;7.072;2024-01-30T07:58:58;12.82;;;8.60;;
14235;SDS011;7202;50.718;7.072;2024-01-30T08:01:26;13.13;;;7.85;;
14235;SDS011;7202;50.718;7.072;2024-01-30T08:03:55;10.95;;;7.78;;
14235;SDS011;7202;50.718;7.072;2024-01-30T08:06:24;10.82;;;8.32;;
14235;SDS011;7202;50.718;7.072;2024-01-30T08:08:54;11.40;;;7.65;;
14235;SDS011;7202;50.718;7.072;2024-01-30T08:11:23;10.00;;;7.90;;
14235;SDS011;7202;50.718;7.072;2024-01-30T08:13:53;10.80;;;7.95;;
14235;SDS011;7202;50.718;7.072;2024-01-30T08:16:22;14.00;;;8.68;;
14235;SDS011;7202;50.718;7.072;2024-01-30T08:18:50;9.63;;;7.38;;
14235;SDS011;7202;50.718;7.072;2024-01-30T08:21:20;12.23;;;8.57;;
14235;SDS011;7202;50.718;7.072;2024-01-30T08:23:49;13.82;;;8.02;;
14235;SDS011;7202;50.718;7.072;2024-01-30T08:26:18;13.65;;;7.88;;
14235;SDS011;7202;50.718;7.072;2024-01-30T08:28:47;10.95;;;7.53;;
14235;SDS011;7202;50.718;7.072;2024-01-30T08:31:17;9.98;;;7.75;;
14235;SDS011;7202;50.718;7.072;2024-01-30T08:33:45;12.38;;;8.43;;
14235;SDS011;7202;50.718;7.072;2024-01-30T08:36:16;12.43;;;8.32;;
14235;SDS011;7202;50.718;7.072;2024-01-30T08:38:45;9.35;;;7.53;;
14235;SDS011;7202;50.718;7.072;2024-01-30T08:41:14;12.55;;;8.57;;
14235;SDS011;7202;50.718;7.072;2024-01-30T08:43:43;11.57;;;7.43;;
14235;SDS011;7202;50.718;7.072;2024-01-30T08:46:12;9.85;;;7.38;;
14235;SDS011;7202;50.718;7.072;2024-01-30T08:48:41;10.75;;;7.30;;
14235;SDS011;7202;50.718;7.072;2024-01-30T08:51:15;13.73;;;8.00;;
14235;SDS011;7202;50.718;7.072;2024-01-30T08:53:45;12.88;;;8.10;;
14235;SDS011;7202;50.718;7.072;2024-01-30T08:56:13;13.52;;;7.90;;
14235;SDS011;7202;50.718;7.072;2024-01-30T08:58:44;12.52;;;7.53;;
14235;SDS011;7202;50.718;7.072;2024-01-30T09:01:13;11.85;;;7.75;;
14235;SDS011;7202;50.718;7.072;2024-01-30T09:03:42;10.85;;;7.10;;
14235;SDS011;7202;50.718;7.072;2024-01-30T09:06:13;11.45;;;6.72;;
14235;SDS011;7202;50.718;7.072;2024-01-30T09:08:41;9.35;;;6.88;;
14235;SDS011;7202;50.718;7.072;2024-01-30T09:11:11;8.63;;;6.03;;
14235;SDS011;7202;50.718;7.072;2024-01-30T09:13:40;11.27;;;6.35;;
14235;SDS011;7202;50.718;7.072;2024-01-30T09:16:11;14.30;;;6.70;;
14235;SDS011;7202;50.718;7.072;2024-01-30T09:18:40;9.60;;;6.32;;
14235;SDS011;7202;50.718;7.072;2024-01-30T09:21:09;9.07;;;6.22;;
14235;SDS011;7202;50.718;7.072;2024-01-30T09:23:38;9.85;;;6.18;;
14235;SDS011;7202;50.718;7.072;2024-01-30T09:26:06;10.80;;;5.90;;
14235;SDS011;7202;50.718;7.072;2024-01-30T09:28:35;7.82;;;6.15;;
14235;SDS011;7202;50.718;7.072;2024-01-30T09:31:04;7.82;;;6.13;;
14235;SDS011;7202;50.718;7.072;2024-01-30T09:33:38;8.80;;;6.40;;
14235;SDS011;7202;50.718;7.072;2024-01-30T09:36:08;9.32;;;6.15;;
14235;SDS011;7202;50.718;7.072;2024-01-30T09:38:36;8.70;;;5.97;;
14235;SDS011;7202;50.718;7.072;2024-01-30T09:41:06;9.85;;;5.95;;
14235;SDS011;7202;50.718;7.072;2024-01-30T09:43:38;10.15;;;6.13;;
14235;SDS011;7202;50.718;7.072;2024-01-30T09:46:07;10.35;;;6.22;;
14235;SDS011;7202;50.718;7.072;2024-01-30T09:48:41;7.65;;;5.53;;
14235;SDS011;7202;50.718;7.072;2024-01-30T09:51:10;7.95;;;5.68;;
14235;SDS011;7202;50.718;7.072;2024-01-30T09:53:39;11.70;;;5.93;;
14235;SDS011;7202;50.718;7.072;2024-01-30T09:56:10;11.10;;;5.75;;
14235;SDS011;7202;50.718;7.072;2024-01-30T09:58:40;9.80;;;5.07;;
14235;SDS011;7202;50.718;7.072;2024-01-30T10:01:08;9.52;;;5.30;;
14235;SDS011;7202;50.718;7.072;2024-01-30T10:03:38;9.18;;;5.72;;
14235;SDS011;7202;50.718;7.072;2024-01-30T10:06:08;14.23;;;5.57;;
14235;SDS011;7202;50.718;7.072;2024-01-30T10:08:37;11.27;;;5.40;;
14235;SDS011;7202;50.718;7.072;2024-01-30T10:11:06;10.85;;;5.20;;
14235;SDS011;7202;50.718;7.072;2024-01-30T10:13:35;10.25;;;4.85;;
14235;SDS011;7202;50.718;7.072;2024-01-30T10:16:04;13.07;;;5.18;;
14235;SDS011;7202;50.718;7.072;2024-01-30T10:18:33;11.52;;;5.53;;
14235;SDS011;7202;50.718;7.072;2024-01-30T10:21:02;11.00;;;4.88;;
14235;SDS011;7202;50.718;7.072;2024-01-30T10:23:32;9.13;;;5.03;;
14235;SDS011;7202;50.718;7.072;2024-01-30T10:26:02;9.75;;;4.63;;
14235;SDS011;7202;50.718;7.072;2024-01-30T10:28:31;10.75;;;4.93;;
14235;SDS011;7202;50.718;7.072;2024-01-30T10:31:00;8.13;;;5.40;;
14235;SDS011;7202;50.718;7.072;2024-01-30T10:33:33;6.18;;;4.55;;
14235;SDS011;7202;50.718;7.072;2024-01-30T10:36:02;7.75;;;5.38;;
14235;SDS011;7202;50.718;7.072;2024-01-30T10:38:33;8.60;;;4.90;;
14235;SDS011;7202;50.718;7.072;2024-01-30T10:41:01;9.95;;;4.68;;
14235;SDS011;7202;50.718;7.072;2024-01-30T10:43:31;9.18;;;5.25;;
14235;SDS011;7202;50.718;7.072;2024-01-30T10:46:04;12.05;;;5.57;;
14235;SDS011;7202;50.718;7.072;2024-01-30T10:48:42;10.55;;;5.00;;
14235;SDS011;7202;50.718;7.072;2024-01-30T10:51:14;7.90;;;4.95;;
14235;SDS011;7202;50.718;7.072;2024-01-30T10:53:44;8.55;;;5.43;;
14235;SDS011;7202;50.718;7.072;2024-01-30T10:56:16;9.52;;;4.95;;
14235;SDS011;7202;50.718;7.072;2024-01-30T10:58:45;13.52;;;5.85;;
14235;SDS011;7202;50.718;7.072;2024-01-30T11:01:14;11.20;;;7.20;;
14235;SDS011;7202;50.718;7.072;2024-01-30T11:03:44;10.68;;;6.78;;
14235;SDS011;7202;50.718;7.072;2024-01-30T11:06:13;9.45;;;6.68;;
14235;SDS011;7202;50.718;7.072;2024-01-30T11:08:46;13.27;;;7.18;;
14235;SDS011;7202;50.718;7.072;2024-01-30T11:11:27;11.23;;;7.72;;
14235;SDS011;7202;50.718;7.072;2024-01-30T11:14:00;9.20;;;6.88;;
14235;SDS011;7202;50.718;7.072;2024-01-30T11:16:30;8.95;;;6.35;;
14235;SDS011;7202;50.718;7.072;2024-01-30T11:19:00;7.63;;;5.05;;
14235;SDS011;7202;50.718;7.072;2024-01-30T11:21:29;8.85;;;5.15;;
14235;SDS011;7202;50.718;7.072;2024-01-30T11:23:59;10.60;;;5.22;;
14235;SDS011;7202;50.718;7.072;2024-01-30T11:26:30;6.88;;;4.32;;
14235;SDS011;7202;50.718;7.072;2024-01-30T11:29:02;7.97;;;4.80;;
14235;SDS011;7202;50.718;7.072;2024-01-30T11:31:31;11.15;;;4.82;;
14235;SDS011;7202;50.718;7.072;2024-01-30T11:34:00;10.52;;;5.22;;
14235;SDS011;7202;50.718;7.072;2024-01-30T11:36:29;8.82;;;5.15;;
14235;SDS011;7202;50.718;7.072;2024-01-30T11:39:05;8.93;;;4.85;;
14235;SDS011;7202;50.718;7.072;2024-01-30T11:41:35;8.90;;;4.85;;
14235;SDS011;7202;50.718;7.072;2024-01-30T11:44:06;9.70;;;4.78;;
14235;SDS011;7202;50.718;7.072;2024-01-30T11:46:36;8.70;;;5.47;;
14235;SDS011;7202;50.718;7.072;2024-01-30T11:49:05;9.85;;;4.75;;
14235;SDS011;7202;50.718;7.072;2024-01-30T11:51:34;10.13;;;4.40;;
14235;SDS011;7202;50.718;7.072;2024-01-30T11:54:02;13.10;;;4.65;;
14235;SDS011;7202;50.718;7.072;2024-01-30T11:56:32;10.05;;;5.57;;
14235;SDS011;7202;50.718;7.072;2024-01-30T11:59:01;6.88;;;5.00;;
14235;SDS011;7202;50.718;7.072;2024-01-30T12:01:30;8.07;;;4.95;;
14235;SDS011;7202;50.718;7.072;2024-01-30T12:03:59;9.65;;;5.32;;
14235;SDS011;7202;50.718;7.072;2024-01-30T12:06:28;9.40;;;4.85;;
14235;SDS011;7202;50.718;7.072;2024-01-30T12:08:57;9.48;;;5.35;;
14235;SDS011;7202;50.718;7.072;2024-01-30T12:11:27;9.73;;;5.35;;
14235;SDS011;7202;50.718;7.072;2024-01-30T12:13:58;10.48;;;5.72;;
14235;SDS011;7202;50.718;7.072;2024-01-30T12:16:27;7.25;;;4.75;;
14235;SDS011;7202;50.718;7.072;2024-01-30T12:18:59;6.35;;;4.38;;
14235;SDS011;7202;50.718;7.072;2024-01-30T12:21:29;7.80;;;4.40;;
14235;SDS011;7202;50.718;7.072;2024-01-30T12:23:57;7.07;;;4.32;;
14235;SDS011;7202;50.718;7.072;2024-01-30T12:26:27;6.90;;;4.43;;
14235;SDS011;7202;50.718;7.072;2024-01-30T12:28:56;6.38;;;5.05;;
14235;SDS011;7202;50.718;7.072;2024-01-30T12:31:26;6.03;;;4.75;;
14235;SDS011;7202;50.718;7.072;2024-01-30T12:33:55;8.27;;;4.63;;
14235;SDS011;7202;50.718;7.072;2024-01-30T12:36:25;10.15;;;4.95;;
14235;SDS011;7202;50.718;7.072;2024-01-30T12:38:54;10.48;;;5.13;;
14235;SDS011;7202;50.718;7.072;2024-01-30T12:41:25;7.93;;;4.43;;
14235;SDS011;7202;50.718;7.072;2024-01-30T12:43:58;8.68;;;5.25;;
14235;SDS011;7202;50.718;7.072;2024-01-30T12:46:27;9.48;;;4.93;;
14235;SDS011;7202;50.718;7.072;2024-01-30T12:48:56;8.65;;;5.50;;
14235;SDS011;7202;50.718;7.072;2024-01-30T12:51:25;14.63;;;5.15;;
14235;SDS011;7202;50.718;7.072;2024-01-30T12:53:54;13.73;;;5.55;;
14235;SDS011;7202;50.718;7.072;2024-01-30T12:56:22;8.55;;;5.53;;
14235;SDS011;7202;50.718;7.072;2024-01-30T12:58:51;10.10;;;5.07;;
14235;SDS011;7202;50.718;7.072;2024-01-30T13:01:23;10.32;;;5.53;;
14235;SDS011;7202;50.718;7.072;2024-01-30T13:03:52;10.60;;;5.30;;
14235;SDS011;7202;50.718;7.072;2024-01-30T13:06:21;10.27;;;5.80;;
14235;SDS011;7202;50.718;7.072;2024-01-30T13:08:49;8.38;;;5.72;;
14235;SDS011;7202;50.718;7.072;2024-01-30T13:11:18;10.50;;;5.60;;
14235;SDS011;7202;50.718;7.072;2024-01-30T13:13:47;10.18;;;5.45;;
14235;SDS011;7202;50.718;7.072;2024-01-30T13:16:16;8.68;;;5.47;;
14235;SDS011;7202;50.718;7.072;2024-01-30T13:18:46;6.85;;;5.13;;
14235;SDS011;7202;50.718;7.072;2024-01-30T13:21:15;11.27;;;5.80;;
14235;SDS011;7202;50.718;7.072;2024-01-30T13:23:44;9.75;;;5.88;;
14235;SDS011;7202;50.718;7.072;2024-01-30T13:26:12;8.95;;;5.35;;
14235;SDS011;7202;50.718;7.072;2024-01-30T13:28:41;10.88;;;5.80;;
14235;SDS011;7202;50.718;7.072;2024-01-30T13:31:11;10.23;;;5.43;;
14235;SDS011;7202;50.718;7.072;2024-01-30T13:33:40;8.52;;;5.20;;
14235;SDS011;7202;50.718;7.072;2024-01-30T13:36:10;11.93;;;6.18;;
14235;SDS011;7202;50.718;7.072;2024-01-30T13:38:39;9.82;;;5.60;;
14235;SDS011;7202;50.718;7.072;2024-01-30T13:41:08;9.63;;;5.93;;
14235;SDS011;7202;50.718;7.072;2024-01-30T13:43:36;11.52;;;5.78;;
14235;SDS011;7202;50.718;7.072;2024-01-30T13:46:05;16.05;;;6.60;;
14235;SDS011;7202;50.718;7.072;2024-01-30T13:48:34;11.00;;;5.72;;
14235;SDS011;7202;50.718;7.072;2024-01-30T13:51:02;8.27;;;6.05;;
14235;SDS011;7202;50.718;7.072;2024-01-30T13:53:33;8.20;;;5.90;;
14235;SDS011;7202;50.718;7.072;2024-01-30T13:56:01;10.05;;;5.95;;
14235;SDS011;7202;50.718;7.072;2024-01-30T13:58:30;10.00;;;6.03;;
14235;SDS011;7202;50.718;7.072;2024-01-30T14:01:00;12.73;;;6.22;;
14235;SDS011;7202;50.718;7.072;2024-01-30T14:03:29;10.25;;;6.25;;
14235;SDS011;7202;50.718;7.072;2024-01-30T14:05:57;9.93;;;5.90;;
14235;SDS011;7202;50.718;7.072;2024-01-30T14:08:26;8.02;;;5.93;;
14235;SDS011;7202;50.718;7.072;2024-01-30T14:10:57;7.50;;;5.55;;
14235;SDS011;7202;50.718;7.072;2024-01-30T14:13:26;10.02;;;7.13;;
14235;SDS011;7202;50.718;7.072;2024-01-30T14:15:55;9.82;;;5.55;;
14235;SDS011;7202;50.718;7.072;2024-01-30T14:18:24;9.68;;;6.03;;
14235;SDS011;7202;50.718;7.072;2024-01-30T14:20:53;8.65;;;6.18;;
14235;SDS011;7202;50.718;7.072;2024-01-30T14:23:22;14.02;;;6.47;;
14235;SDS011;7202;50.718;7.072;2024-01-30T14:25:50;10.73;;;6.30;;
14235;SDS011;7202;50.718;7.072;2024-01-30T14:28:20;10.05;;;6.18;;
14235;SDS011;7202;50.718;7.072;2024-01-30T14:30:49;10.07;;;5.75;;
14235;SDS011;7202;50.718;7.072;2024-01-30T14:33:18;10.02;;;5.85;;
14235;SDS011;7202;50.718;7.072;2024-01-30T14:35:47;8.95;;;6.07;;
14235;SDS011;7202;50.718;7.072;2024-01-30T14:38:15;10.05;;;6.10;;
14235;SDS011;7202;50.718;7.072;2024-01-30T14:40:44;9.93;;;6.20;;
14235;SDS011;7202;50.718;7.072;2024-01-30T14:43:12;11.75;;;6.72;;
14235;SDS011;7202;50.718;7.072;2024-01-30T14:45:43;8.30;;;6.35;;
14235;SDS011;7202;50.718;7.072;2024-01-30T14:48:13;8.95;;;6.63;;
14235;SDS011;7202;50.718;7.072;2024-01-30T14:50:41;11.60;;;7.22;;
14235;SDS011;7202;50.718;7.072;2024-01-30T14:53:10;11.20;;;7.03;;
14235;SDS011;7202;50.718;7.072;2024-01-30T14:55:38;11.68;;;7.63;;
14235;SDS011;7202;50.718;7.072;2024-01-30T14:58:07;11.38;;;7.38;;
14235;SDS011;7202;50.718;7.072;2024-01-30T15:00:38;14.65;;;6.85;;
14235;SDS011;7202;50.718;7.072;2024-01-30T15:03:08;10.63;;;6.50;;